createdAt,value
2019-01-31T00:01:39.905Z,9.07
2019-01-31T00:04:28.708Z,10.20
2019-01-31T00:07:40.723Z,10.87
2019-01-31T00:10:33.179Z,11.10
2019-01-31T00:13:43.016Z,17.43
2019-01-31T00:16:35.273Z,13.50
2019-01-31T00:19:35.080Z,14.60
2019-01-31T00:22:47.364Z,9.93
2019-01-31T00:25:39.273Z,8.50
2019-01-31T00:28:42.100Z,10.00
2019-01-31T00:31:36.873Z,8.67
2019-01-31T00:34:49.708Z,7.83
2019-01-31T00:37:40.483Z,6.30
2019-01-31T00:40:19.293Z,9.10
2019-01-31T00:43:18.420Z,6.00
2019-01-31T00:46:18.761Z,6.07
2019-01-31T00:49:16.605Z,3.33
2019-01-31T00:52:12.159Z,2.50
2019-01-31T00:55:34.347Z,3.80
2019-01-31T00:58:33.198Z,6.40
2019-01-31T01:01:37.783Z,2.47
2019-01-31T01:04:43.532Z,5.40
2019-01-31T01:08:02.589Z,5.07
2019-01-31T01:11:11.056Z,4.93
2019-01-31T01:13:51.109Z,3.23
2019-01-31T01:16:39.145Z,7.00
2019-01-31T01:20:01.109Z,5.43
2019-01-31T01:22:44.651Z,4.13
2019-01-31T01:25:57.007Z,5.40
2019-01-31T01:28:58.107Z,3.33
2019-01-31T01:32:11.236Z,8.77
2019-01-31T01:35:22.440Z,5.83
2019-01-31T01:38:50.768Z,2.93
2019-01-31T01:41:54.522Z,4.73
2019-01-31T01:45:04.880Z,10.50
2019-01-31T01:47:39.469Z,5.37
2019-01-31T01:50:21.032Z,6.33
2019-01-31T01:53:26.096Z,4.07
2019-01-31T01:56:37.720Z,7.37
2019-01-31T01:59:46.588Z,6.83
2019-01-31T02:02:54.113Z,5.27
2019-01-31T02:05:50.780Z,6.27
2019-01-31T02:09:02.067Z,6.70
2019-01-31T02:11:58.669Z,7.17
2019-01-31T02:15:16.374Z,5.90
2019-01-31T02:18:26.413Z,7.20
2019-01-31T02:21:25.212Z,8.90
2019-01-31T02:24:08.052Z,12.80
2019-01-31T02:27:04.779Z,9.20
2019-01-31T02:30:02.692Z,12.03
2019-01-31T02:33:07.404Z,10.53
2019-01-31T02:36:29.071Z,12.77
2019-01-31T02:39:47.647Z,13.10
2019-01-31T02:42:45.386Z,11.90
2019-01-31T02:45:37.298Z,16.20
2019-01-31T02:48:21.980Z,15.63
2019-01-31T02:51:22.173Z,16.27
2019-01-31T02:54:31.551Z,19.93
2019-01-31T02:57:32.413Z,11.03
2019-01-31T03:00:29.837Z,13.30
2019-01-31T03:03:30.482Z,13.07
2019-01-31T03:06:29.417Z,15.47
2019-01-31T03:09:27.544Z,13.57
2019-01-31T03:12:09.343Z,13.73
2019-01-31T03:14:43.854Z,14.90
2019-01-31T03:17:56.992Z,16.07
2019-01-31T03:21:10.125Z,11.47
2019-01-31T03:24:11.187Z,13.10
2019-01-31T03:27:07.024Z,12.60
2019-01-31T03:30:24.742Z,13.93
2019-01-31T03:33:15.209Z,14.60
2019-01-31T03:36:34.344Z,14.73
2019-01-31T03:39:41.360Z,17.60
2019-01-31T03:42:54.838Z,15.33
2019-01-31T03:46:03.317Z,17.97
2019-01-31T03:48:55.004Z,14.80
2019-01-31T03:51:48.495Z,15.13
2019-01-31T03:55:04.947Z,14.80
2019-01-31T03:58:06.370Z,14.93
2019-01-31T04:00:48.911Z,14.20
2019-01-31T04:03:32.428Z,20.70
2019-01-31T04:06:14.146Z,13.30
2019-01-31T04:08:43.118Z,14.57
2019-01-31T04:11:12.133Z,13.00
2019-01-31T04:13:41.137Z,15.73
2019-01-31T04:16:10.160Z,16.10
2019-01-31T04:18:39.152Z,13.83
2019-01-31T04:21:09.175Z,14.97
2019-01-31T04:23:38.123Z,16.20
2019-01-31T04:26:09.189Z,15.83
2019-01-31T04:28:38.347Z,14.97
2019-01-31T04:31:07.368Z,15.07
2019-01-31T04:33:36.390Z,21.93
2019-01-31T04:36:05.388Z,13.07
2019-01-31T04:38:34.413Z,15.13
2019-01-31T04:41:03.344Z,13.70
2019-01-31T04:43:32.336Z,17.33
2019-01-31T04:46:01.357Z,14.40
2019-01-31T04:48:31.064Z,16.23
2019-01-31T04:51:00.009Z,13.47
2019-01-31T04:53:28.948Z,13.27
2019-01-31T04:55:57.901Z,14.03
2019-01-31T04:58:26.855Z,18.23
2019-01-31T05:00:55.803Z,15.20
2019-01-31T05:03:24.747Z,13.43
2019-01-31T05:05:53.721Z,13.63
2019-01-31T05:08:22.647Z,14.50
2019-01-31T05:10:51.644Z,14.10
2019-01-31T05:13:20.524Z,13.43
2019-01-31T05:15:49.445Z,12.27
2019-01-31T05:18:18.307Z,11.50
2019-01-31T05:20:47.550Z,11.57
2019-01-31T05:23:16.480Z,13.33
2019-01-31T05:25:45.476Z,11.63
2019-01-31T05:28:14.413Z,11.93
2019-01-31T05:30:43.312Z,10.53
2019-01-31T05:33:12.526Z,10.97
2019-01-31T05:35:41.504Z,8.90
2019-01-31T05:38:10.510Z,12.90
2019-01-31T05:40:39.502Z,13.83
2019-01-31T05:43:08.432Z,10.67
2019-01-31T05:45:37.432Z,10.57
2019-01-31T05:48:06.440Z,10.87
2019-01-31T05:50:35.353Z,12.10
2019-01-31T05:53:04.421Z,10.83
2019-01-31T05:55:33.306Z,11.03
2019-01-31T05:58:02.304Z,11.63
2019-01-31T06:00:35.886Z,9.60
2019-01-31T06:03:05.200Z,10.47
2019-01-31T06:05:34.598Z,12.53
2019-01-31T06:08:03.600Z,11.03
2019-01-31T06:10:33.653Z,12.27
2019-01-31T06:13:02.914Z,10.00
2019-01-31T06:15:31.936Z,10.43
2019-01-31T06:18:01.208Z,9.40
2019-01-31T06:20:30.232Z,13.97
2019-01-31T06:22:59.250Z,11.03
2019-01-31T06:25:28.189Z,11.63
2019-01-31T06:27:57.188Z,10.20
2019-01-31T06:30:26.316Z,10.63
2019-01-31T06:32:55.345Z,11.23
2019-01-31T06:35:24.694Z,12.33
2019-01-31T06:37:53.544Z,10.53
2019-01-31T06:40:22.557Z,8.43
2019-01-31T06:42:52.477Z,9.33
2019-01-31T06:45:22.297Z,9.33
2019-01-31T06:47:51.596Z,11.43
2019-01-31T06:50:20.594Z,8.87
2019-01-31T06:52:49.457Z,10.53
2019-01-31T06:55:19.353Z,9.43
2019-01-31T06:57:48.290Z,11.13
2019-01-31T07:00:21.989Z,10.43
2019-01-31T07:02:51.304Z,12.50
2019-01-31T07:05:20.314Z,10.73
2019-01-31T07:07:49.379Z,12.80
2019-01-31T07:10:23.981Z,13.33
2019-01-31T07:12:53.022Z,13.70
2019-01-31T07:15:21.976Z,13.87
2019-01-31T07:17:51.372Z,13.07
2019-01-31T07:20:20.486Z,12.57
2019-01-31T07:22:49.446Z,12.80
2019-01-31T07:25:21.766Z,13.77
2019-01-31T07:27:53.482Z,12.93
2019-01-31T07:30:26.739Z,15.47
2019-01-31T07:32:56.284Z,13.83
2019-01-31T07:35:25.234Z,17.40
2019-01-31T07:37:54.236Z,17.10
2019-01-31T07:40:23.463Z,14.83
2019-01-31T07:42:52.448Z,17.43
2019-01-31T07:45:23.629Z,19.20
2019-01-31T07:47:54.983Z,16.67
2019-01-31T07:50:24.068Z,16.43
2019-01-31T07:52:53.568Z,17.33
2019-01-31T07:55:22.589Z,18.03
2019-01-31T07:57:52.276Z,18.17
2019-01-31T08:00:21.823Z,19.63
2019-01-31T08:02:50.866Z,19.20
2019-01-31T08:05:20.985Z,19.47
2019-01-31T08:07:51.355Z,22.07
2019-01-31T08:10:26.149Z,21.80
2019-01-31T08:12:55.166Z,22.77
2019-01-31T08:15:24.213Z,27.87
2019-01-31T08:17:55.796Z,29.07
2019-01-31T08:20:24.856Z,35.43
2019-01-31T08:22:53.866Z,36.90
2019-01-31T08:25:23.697Z,49.77
2019-01-31T08:27:52.725Z,61.43
2019-01-31T08:30:24.230Z,75.97
2019-01-31T08:32:53.299Z,71.97
2019-01-31T08:35:22.317Z,71.10
2019-01-31T08:37:51.353Z,78.27
2019-01-31T08:40:20.400Z,74.70
2019-01-31T08:43:08.537Z,72.53
2019-01-31T08:45:37.486Z,64.03
2019-01-31T08:48:07.489Z,62.30
2019-01-31T08:50:36.513Z,59.00
2019-01-31T08:53:05.652Z,72.80
2019-01-31T08:55:34.702Z,73.80
2019-01-31T08:58:03.708Z,71.97
2019-01-31T09:00:32.733Z,89.73
2019-01-31T09:03:02.069Z,86.47
2019-01-31T09:05:31.150Z,64.47
2019-01-31T09:08:00.480Z,72.67
2019-01-31T09:10:31.872Z,79.70
2019-01-31T09:13:02.877Z,66.53
2019-01-31T09:15:31.784Z,66.80
2019-01-31T09:18:02.944Z,59.73
2019-01-31T09:20:47.708Z,62.77
2019-01-31T09:24:10.313Z,64.73
2019-01-31T09:27:27.174Z,57.50
2019-01-31T09:30:34.801Z,66.07
2019-01-31T09:33:33.072Z,70.87
2019-01-31T09:36:18.079Z,64.80
2019-01-31T09:39:19.088Z,65.57
2019-01-31T09:42:00.237Z,64.00
2019-01-31T09:45:18.385Z,71.17
2019-01-31T09:48:24.265Z,63.93
2019-01-31T09:51:33.041Z,57.50
2019-01-31T09:54:36.391Z,60.93
2019-01-31T09:57:43.461Z,64.93
2019-01-31T10:00:54.021Z,60.13
2019-01-31T10:03:55.289Z,56.70
2019-01-31T10:07:17.980Z,50.47
2019-01-31T10:10:15.167Z,53.33
2019-01-31T10:13:20.661Z,49.40
2019-01-31T10:16:55.043Z,53.07
2019-01-31T10:20:12.228Z,50.10
2019-01-31T10:23:30.501Z,47.17
2019-01-31T10:26:37.949Z,48.83
2019-01-31T10:29:43.813Z,45.37
2019-01-31T10:32:44.355Z,42.37
2019-01-31T10:35:57.989Z,39.53
2019-01-31T10:38:51.486Z,38.77
2019-01-31T10:41:53.696Z,35.80
2019-01-31T10:44:44.388Z,39.00
2019-01-31T10:47:56.864Z,38.30
2019-01-31T10:50:47.264Z,43.23
2019-01-31T10:53:43.334Z,36.93
2019-01-31T10:57:17.944Z,43.90
2019-01-31T11:00:07.408Z,44.77
2019-01-31T11:03:09.281Z,40.97
2019-01-31T11:06:08.324Z,44.97
2019-01-31T11:09:00.331Z,40.97
2019-01-31T11:11:49.013Z,40.27
2019-01-31T11:14:45.958Z,43.33
2019-01-31T11:17:53.792Z,39.70
2019-01-31T11:20:58.880Z,35.50
2019-01-31T11:24:06.656Z,39.50
2019-01-31T11:27:09.383Z,36.30
2019-01-31T11:30:17.605Z,34.07
2019-01-31T11:33:36.899Z,34.30
2019-01-31T11:36:24.323Z,30.53
2019-01-31T11:39:29.621Z,34.77
2019-01-31T11:42:28.165Z,36.10
2019-01-31T11:45:20.248Z,34.43
2019-01-31T11:48:03.665Z,44.47
2019-01-31T11:51:12.920Z,37.53
2019-01-31T11:54:28.840Z,38.20
2019-01-31T11:57:57.124Z,43.67
2019-01-31T12:00:27.012Z,44.73
2019-01-31T12:02:56.135Z,43.00
2019-01-31T12:05:25.168Z,44.80
2019-01-31T12:07:54.230Z,51.43
2019-01-31T12:10:24.063Z,45.30
2019-01-31T12:12:53.332Z,57.33
2019-01-31T12:15:22.278Z,64.63
2019-01-31T12:17:51.317Z,69.00
2019-01-31T12:20:21.142Z,69.97
2019-01-31T12:22:51.357Z,63.90
2019-01-31T12:25:20.776Z,70.03
2019-01-31T12:27:49.850Z,70.07
2019-01-31T12:30:21.708Z,68.00
2019-01-31T12:32:50.556Z,70.03
2019-01-31T12:35:19.568Z,66.37
2019-01-31T12:37:48.535Z,61.60
2019-01-31T12:40:18.016Z,68.70
2019-01-31T12:42:47.188Z,65.37
2019-01-31T12:45:17.720Z,67.43
2019-01-31T12:47:46.657Z,65.90
2019-01-31T12:50:18.482Z,71.50
2019-01-31T12:52:47.518Z,70.87
2019-01-31T12:55:16.548Z,65.50
2019-01-31T12:57:45.587Z,64.93
2019-01-31T13:00:26.189Z,62.50
2019-01-31T13:02:55.319Z,62.53
2019-01-31T13:05:24.602Z,67.73
2019-01-31T13:07:53.635Z,59.37
2019-01-31T13:10:23.042Z,58.73
2019-01-31T13:12:52.929Z,66.97
2019-01-31T13:15:21.974Z,51.50
2019-01-31T13:17:50.985Z,60.43
2019-01-31T13:20:21.756Z,59.47
2019-01-31T13:22:54.873Z,57.37
2019-01-31T13:25:25.561Z,55.57
2019-01-31T13:27:54.701Z,55.13
2019-01-31T13:30:23.769Z,53.83
2019-01-31T13:32:53.780Z,57.23
2019-01-31T13:35:22.795Z,53.40
2019-01-31T13:37:54.098Z,51.80
2019-01-31T13:40:24.981Z,55.53
2019-01-31T13:42:55.922Z,50.70
2019-01-31T13:45:30.231Z,54.57
2019-01-31T13:48:02.844Z,53.47
2019-01-31T13:50:32.601Z,49.87
2019-01-31T13:53:01.650Z,48.93
2019-01-31T13:55:31.361Z,54.90
2019-01-31T13:58:00.286Z,50.00
2019-01-31T14:00:29.409Z,50.03
2019-01-31T14:02:58.443Z,52.60
2019-01-31T14:05:29.763Z,48.17
2019-01-31T14:07:58.232Z,49.30
2019-01-31T14:10:28.124Z,51.70
2019-01-31T14:12:57.233Z,51.90
2019-01-31T14:15:33.630Z,47.57
2019-01-31T14:17:59.652Z,43.33
2019-01-31T14:20:28.898Z,45.80
2019-01-31T14:22:58.216Z,45.13
2019-01-31T14:25:27.220Z,43.77
2019-01-31T14:27:56.345Z,44.00
2019-01-31T14:30:30.948Z,40.30
2019-01-31T14:33:24.252Z,38.60
2019-01-31T14:35:53.329Z,37.60
2019-01-31T14:38:22.349Z,43.50
2019-01-31T14:40:51.380Z,40.60
2019-01-31T14:43:20.400Z,34.90
2019-01-31T14:45:49.738Z,43.37
2019-01-31T14:48:18.623Z,36.17
2019-01-31T14:50:47.641Z,36.30
2019-01-31T14:53:16.624Z,35.37
2019-01-31T14:55:45.721Z,32.10
2019-01-31T14:58:14.783Z,29.70
2019-01-31T15:00:43.790Z,28.60
2019-01-31T15:03:12.824Z,29.87
2019-01-31T15:05:41.817Z,30.93
2019-01-31T15:08:10.956Z,29.50
2019-01-31T15:10:39.892Z,35.83
2019-01-31T15:13:08.911Z,35.30
2019-01-31T15:15:37.944Z,39.53
2019-01-31T15:18:08.234Z,38.60
2019-01-31T15:20:39.804Z,33.60
2019-01-31T15:23:08.876Z,35.33
2019-01-31T15:25:41.521Z,35.53
2019-01-31T15:28:10.532Z,34.43
2019-01-31T15:30:39.540Z,36.03
2019-01-31T15:33:14.080Z,31.40
2019-01-31T15:35:43.569Z,33.13
2019-01-31T15:38:12.708Z,36.47
2019-01-31T15:40:47.802Z,32.50
2019-01-31T15:43:16.915Z,34.90
2019-01-31T15:45:46.092Z,33.07
2019-01-31T15:48:15.235Z,32.93
2019-01-31T15:50:44.220Z,39.47
2019-01-31T15:53:13.533Z,39.50
2019-01-31T15:55:43.272Z,35.37
2019-01-31T15:58:12.280Z,36.73
2019-01-31T16:00:50.040Z,41.97
2019-01-31T16:03:21.046Z,35.97
2019-01-31T16:05:50.664Z,38.37
2019-01-31T16:08:19.970Z,43.17
2019-01-31T16:10:49.078Z,43.43
2019-01-31T16:13:18.354Z,38.90
2019-01-31T16:15:48.225Z,36.27
2019-01-31T16:18:25.521Z,33.80
2019-01-31T16:20:54.602Z,36.43
2019-01-31T16:23:24.604Z,35.60
2019-01-31T16:25:54.061Z,32.23
2019-01-31T16:28:23.077Z,28.73
2019-01-31T16:30:52.796Z,30.00
2019-01-31T16:33:23.612Z,28.03
2019-01-31T16:35:53.855Z,28.90
2019-01-31T16:38:24.080Z,26.80
2019-01-31T16:40:53.284Z,32.57
2019-01-31T16:43:22.296Z,28.63
2019-01-31T16:45:51.420Z,26.97
2019-01-31T16:48:20.812Z,27.90
2019-01-31T16:50:51.322Z,28.13
2019-01-31T16:53:20.541Z,28.37
2019-01-31T16:55:49.547Z,25.13
2019-01-31T16:58:43.400Z,27.43
2019-01-31T17:01:16.146Z,26.93
2019-01-31T17:03:50.132Z,30.30
2019-01-31T17:06:21.586Z,29.53
2019-01-31T17:08:51.272Z,31.63
2019-01-31T17:11:21.749Z,33.87
2019-01-31T17:13:51.778Z,35.90
2019-01-31T17:16:20.802Z,36.83
2019-01-31T17:18:49.796Z,37.20
2019-01-31T17:21:18.751Z,33.77
2019-01-31T17:23:47.729Z,41.00
2019-01-31T17:26:18.945Z,38.03
2019-01-31T17:28:47.924Z,44.13
2019-01-31T17:31:16.927Z,46.20
2019-01-31T17:33:45.872Z,44.53
2019-01-31T17:36:14.889Z,44.07
2019-01-31T17:38:43.861Z,49.03
2019-01-31T17:41:12.885Z,48.17
2019-01-31T17:43:41.730Z,48.57
2019-01-31T17:46:12.752Z,55.00
2019-01-31T17:48:41.704Z,50.73
2019-01-31T17:51:12.386Z,52.93
2019-01-31T17:53:41.453Z,48.03
2019-01-31T17:56:10.824Z,50.93
2019-01-31T17:58:39.820Z,46.67
2019-01-31T18:01:09.008Z,46.03
2019-01-31T18:03:38.295Z,48.37
2019-01-31T18:06:07.409Z,51.33
2019-01-31T18:08:36.482Z,43.47
2019-01-31T18:11:05.504Z,42.80
2019-01-31T18:13:34.494Z,40.57
2019-01-31T18:16:04.718Z,41.63
2019-01-31T18:18:33.740Z,39.43
2019-01-31T18:21:02.845Z,37.53
2019-01-31T18:23:31.718Z,36.97
2019-01-31T18:26:00.717Z,38.97
2019-01-31T18:28:29.770Z,47.88
2019-01-31T18:30:58.713Z,43.80
2019-01-31T18:33:27.807Z,40.10
2019-01-31T18:35:56.961Z,41.23
2019-01-31T18:38:25.988Z,32.83
2019-01-31T18:40:54.868Z,37.47
2019-01-31T18:43:23.799Z,33.73
2019-01-31T18:45:53.758Z,37.47
2019-01-31T18:48:22.968Z,34.70
2019-01-31T18:50:51.972Z,38.50
2019-01-31T18:53:20.964Z,37.50
2019-01-31T18:55:49.873Z,36.27
2019-01-31T18:58:20.039Z,42.93
2019-01-31T19:00:50.124Z,41.23
2019-01-31T19:03:19.592Z,40.07
2019-01-31T19:05:49.711Z,39.80
2019-01-31T19:08:18.629Z,39.00
2019-01-31T19:10:47.627Z,38.20
2019-01-31T19:13:16.621Z,39.63
2019-01-31T19:15:46.483Z,38.67
2019-01-31T19:18:15.572Z,36.43
2019-01-31T19:20:44.503Z,40.70
2019-01-31T19:23:13.491Z,48.70
2019-01-31T19:25:42.489Z,45.53
2019-01-31T19:28:13.227Z,47.50
2019-01-31T19:30:42.484Z,46.97
2019-01-31T19:33:11.596Z,44.47
2019-01-31T19:35:40.613Z,42.93
2019-01-31T19:38:10.244Z,39.70
2019-01-31T19:40:41.603Z,42.53
2019-01-31T19:43:10.788Z,36.13
2019-01-31T19:45:41.859Z,35.83
2019-01-31T19:48:11.236Z,39.83
2019-01-31T19:50:43.445Z,36.63
2019-01-31T19:53:11.377Z,42.20
2019-01-31T19:55:40.378Z,46.87
2019-01-31T19:58:09.548Z,38.40
2019-01-31T20:00:38.549Z,42.53
2019-01-31T20:03:08.672Z,36.77
2019-01-31T20:05:41.561Z,39.83
2019-01-31T20:08:12.041Z,42.63
2019-01-31T20:10:41.536Z,38.90
2019-01-31T20:13:10.536Z,40.27
2019-01-31T20:15:39.589Z,35.20
2019-01-31T20:18:09.204Z,40.93
2019-01-31T20:20:38.301Z,38.63
2019-01-31T20:23:07.762Z,32.07
2019-01-31T20:25:36.963Z,38.27
2019-01-31T20:28:06.091Z,35.27
2019-01-31T20:30:35.746Z,36.10
2019-01-31T20:33:06.437Z,39.40
2019-01-31T20:35:35.643Z,35.50
2019-01-31T20:38:04.940Z,36.80
2019-01-31T20:40:36.304Z,37.47
2019-01-31T20:43:06.899Z,35.47
2019-01-31T20:45:36.272Z,39.07
2019-01-31T20:48:07.290Z,38.10
2019-01-31T20:50:37.185Z,38.90
2019-01-31T20:53:06.793Z,36.37
2019-01-31T20:55:35.798Z,40.30
2019-01-31T20:58:05.577Z,42.07
2019-01-31T21:00:37.021Z,43.13
2019-01-31T21:03:06.962Z,47.07
2019-01-31T21:05:36.038Z,46.70
2019-01-31T21:08:06.051Z,48.37
2019-01-31T21:10:35.240Z,51.90
2019-01-31T21:13:06.641Z,43.67
2019-01-31T21:15:35.857Z,48.10
2019-01-31T21:18:05.920Z,50.63
2019-01-31T21:20:35.035Z,51.43
2019-01-31T21:23:04.372Z,52.13
2019-01-31T21:25:34.463Z,46.20
2019-01-31T21:28:04.784Z,44.67
2019-01-31T21:30:36.845Z,48.57
2019-01-31T21:33:07.253Z,57.43
2019-01-31T21:35:36.345Z,46.20
2019-01-31T21:38:05.624Z,49.17
2019-01-31T21:40:38.043Z,52.27
2019-01-31T21:43:07.133Z,59.80
2019-01-31T21:45:36.376Z,56.30
2019-01-31T21:48:08.938Z,53.90
2019-01-31T21:50:37.994Z,56.07
2019-01-31T21:53:07.194Z,58.70
2019-01-31T21:55:36.256Z,54.07
2019-01-31T21:58:06.018Z,59.50
2019-01-31T22:00:35.477Z,53.83
2019-01-31T22:03:05.334Z,54.43
2019-01-31T22:05:34.420Z,57.43
2019-01-31T22:08:03.435Z,56.67
2019-01-31T22:10:32.448Z,52.70
2019-01-31T22:13:02.933Z,53.10
2019-01-31T22:15:32.788Z,51.10
2019-01-31T22:18:01.822Z,49.97
2019-01-31T22:20:30.887Z,56.57
2019-01-31T22:22:59.877Z,51.17
2019-01-31T22:25:28.912Z,44.07
2019-01-31T22:27:58.227Z,52.10
2019-01-31T22:30:38.032Z,49.23
2019-01-31T22:33:08.539Z,47.73
2019-01-31T22:35:37.611Z,47.60
2019-01-31T22:38:06.995Z,46.57
2019-01-31T22:40:36.213Z,45.23
2019-01-31T22:43:05.882Z,48.60
2019-01-31T22:45:34.961Z,47.80
2019-01-31T22:48:05.364Z,47.63
2019-01-31T22:50:44.959Z,44.93
2019-01-31T22:53:13.840Z,45.87
2019-01-31T22:55:42.860Z,43.80
2019-01-31T22:58:11.785Z,50.67
2019-01-31T23:01:11.177Z,47.27
2019-01-31T23:03:40.725Z,40.50
2019-01-31T23:06:12.643Z,49.47
2019-01-31T23:08:41.677Z,45.80
2019-01-31T23:11:10.689Z,47.90
2019-01-31T23:13:39.636Z,45.47
2019-01-31T23:16:10.728Z,42.37
2019-01-31T23:18:39.811Z,43.43
2019-01-31T23:21:08.875Z,46.03
2019-01-31T23:23:37.874Z,43.90
2019-01-31T23:26:07.145Z,47.03
2019-01-31T23:28:36.133Z,43.57
2019-01-31T23:31:05.556Z,45.13
2019-01-31T23:33:34.424Z,44.27
2019-01-31T23:36:03.736Z,46.23
2019-01-31T23:38:32.739Z,46.93
2019-01-31T23:41:01.836Z,41.47
2019-01-31T23:43:32.836Z,41.93
2019-01-31T23:46:02.428Z,42.43
2019-01-31T23:48:31.276Z,42.60
2019-01-31T23:51:00.564Z,40.40
2019-01-31T23:53:29.613Z,43.37
2019-01-31T23:55:58.536Z,38.77
2019-01-31T23:58:27.511Z,40.10
